createdAt,value
2019-02-05T00:01:26.937Z,19.07
2019-02-05T00:03:56.311Z,21.57
2019-02-05T00:06:25.994Z,23.80
2019-02-05T00:08:55.490Z,20.87
2019-02-05T00:11:27.190Z,24.47
2019-02-05T00:13:56.745Z,27.67
2019-02-05T00:16:26.141Z,18.33
2019-02-05T00:18:58.019Z,18.90
2019-02-05T00:21:27.444Z,23.70
2019-02-05T00:23:56.949Z,20.77
2019-02-05T00:26:26.515Z,20.63
2019-02-05T00:28:56.018Z,22.40
2019-02-05T00:31:25.439Z,25.13
2019-02-05T00:33:55.191Z,24.33
2019-02-05T00:36:24.694Z,24.30
2019-02-05T00:38:54.094Z,22.07
2019-02-05T00:41:23.466Z,19.40
2019-02-05T00:43:52.855Z,14.57
2019-02-05T00:46:22.291Z,14.93
2019-02-05T00:48:52.105Z,14.30
2019-02-05T00:51:21.622Z,13.73
2019-02-05T00:53:51.081Z,17.83
2019-02-05T00:56:20.514Z,22.00
2019-02-05T00:58:49.850Z,16.90
2019-02-05T01:01:19.226Z,21.20
2019-02-05T01:03:48.760Z,13.17
2019-02-05T01:06:18.184Z,16.53
2019-02-05T01:08:47.625Z,16.87
2019-02-05T01:11:17.066Z,15.10
2019-02-05T01:13:46.441Z,13.03
2019-02-05T01:16:15.778Z,13.47
2019-02-05T01:18:45.179Z,12.43
2019-02-05T01:21:14.634Z,13.93
2019-02-05T01:23:43.979Z,16.90
2019-02-05T01:26:13.445Z,15.57
2019-02-05T01:28:42.924Z,19.87
2019-02-05T01:31:12.458Z,16.47
2019-02-05T01:33:41.933Z,20.20
2019-02-05T01:36:11.541Z,14.03
2019-02-05T01:38:41.206Z,16.30
2019-02-05T01:41:10.515Z,17.47
2019-02-05T01:43:39.942Z,18.60
2019-02-05T01:46:09.785Z,22.33
2019-02-05T01:48:39.242Z,24.53
2019-02-05T01:51:08.584Z,24.97
2019-02-05T01:53:37.962Z,22.67
2019-02-05T01:56:07.393Z,26.13
2019-02-05T01:58:36.970Z,25.47
2019-02-05T02:01:07.142Z,22.93
2019-02-05T02:03:36.666Z,21.37
2019-02-05T02:06:06.101Z,21.03
2019-02-05T02:08:35.599Z,20.20
2019-02-05T02:11:05.045Z,22.50
2019-02-05T02:13:34.377Z,17.60
2019-02-05T02:16:04.350Z,26.03
2019-02-05T02:18:33.700Z,28.17
2019-02-05T02:21:03.126Z,22.43
2019-02-05T02:23:32.658Z,28.10
2019-02-05T02:26:02.179Z,21.23
2019-02-05T02:28:31.516Z,26.33
2019-02-05T02:31:01.210Z,24.90
2019-02-05T02:33:30.670Z,27.30
2019-02-05T02:36:00.029Z,29.97
2019-02-05T02:38:29.469Z,23.43
2019-02-05T02:40:58.941Z,18.23
2019-02-05T02:43:28.533Z,21.83
2019-02-05T02:45:58.148Z,21.83
2019-02-05T02:48:27.541Z,31.57
2019-02-05T02:50:57.175Z,27.67
2019-02-05T02:53:26.563Z,27.20
2019-02-05T02:55:56.062Z,30.17
2019-02-05T02:58:25.486Z,32.63
2019-02-05T03:00:55.279Z,27.33
2019-02-05T03:03:24.694Z,31.17
2019-02-05T03:05:54.201Z,33.17
2019-02-05T03:08:23.738Z,32.97
2019-02-05T03:10:53.081Z,35.43
2019-02-05T03:13:22.526Z,28.70
2019-02-05T03:15:52.293Z,28.70
2019-02-05T03:18:21.782Z,28.97
2019-02-05T03:20:51.194Z,32.37
2019-02-05T03:23:20.865Z,33.73
2019-02-05T03:25:50.219Z,35.47
2019-02-05T03:28:19.605Z,23.30
2019-02-05T03:30:49.152Z,35.53
2019-02-05T03:33:20.318Z,26.10
2019-02-05T03:35:49.810Z,27.30
2019-02-05T03:38:19.406Z,31.43
2019-02-05T03:41:08.696Z,17.63
2019-02-05T03:43:41.644Z,31.80
2019-02-05T03:46:13.017Z,33.20
2019-02-05T03:48:43.979Z,26.60
2019-02-05T03:51:42.343Z,20.23
2019-02-05T03:54:48.157Z,36.70
2019-02-05T03:57:32.347Z,34.93
2019-02-05T04:00:52.186Z,24.33
2019-02-05T04:04:11.175Z,37.27
2019-02-05T04:07:21.633Z,16.13
2019-02-05T04:10:49.222Z,29.20
2019-02-05T04:13:39.243Z,27.30
2019-02-05T04:16:56.892Z,30.73
2019-02-05T04:20:02.312Z,27.30
2019-02-05T04:23:11.758Z,28.17
2019-02-05T04:25:57.773Z,21.17
2019-02-05T04:29:00.830Z,19.60
2019-02-05T04:31:53.614Z,20.20
2019-02-05T04:35:04.255Z,34.13
2019-02-05T04:38:26.904Z,26.57
2019-02-05T04:41:05.163Z,23.00
2019-02-05T04:43:50.554Z,32.47
2019-02-05T04:46:30.995Z,26.23
2019-02-05T04:49:26.681Z,34.80
2019-02-05T04:52:28.237Z,31.63
2019-02-05T04:55:35.554Z,24.40
2019-02-05T04:58:37.386Z,23.17
2019-02-05T05:01:43.143Z,37.20
2019-02-05T05:04:35.661Z,31.47
2019-02-05T05:08:16.866Z,34.73
2019-02-05T05:10:46.284Z,22.50
2019-02-05T05:13:15.750Z,26.07
2019-02-05T05:15:45.169Z,19.27
2019-02-05T05:18:15.619Z,36.30
2019-02-05T05:20:45.948Z,33.20
2019-02-05T05:23:15.657Z,22.43
2019-02-05T05:25:45.095Z,23.13
2019-02-05T05:28:14.559Z,36.47
2019-02-05T05:30:44.080Z,25.23
2019-02-05T05:33:13.888Z,23.23
2019-02-05T05:35:44.566Z,24.47
2019-02-05T05:38:14.183Z,35.73
2019-02-05T05:40:43.606Z,29.73
2019-02-05T05:43:13.071Z,19.43
2019-02-05T05:45:42.506Z,27.90
2019-02-05T05:48:12.329Z,25.27
2019-02-05T05:50:41.976Z,40.70
2019-02-05T05:53:11.528Z,36.13
2019-02-05T05:55:40.994Z,33.83
2019-02-05T05:58:21.960Z,32.03
2019-02-05T06:00:41.591Z,35.07
2019-02-05T06:03:11.434Z,32.43
2019-02-05T06:05:40.980Z,33.70
2019-02-05T06:08:10.842Z,26.03
2019-02-05T06:10:40.354Z,22.07
2019-02-05T06:13:09.832Z,24.27
2019-02-05T06:15:39.367Z,19.50
2019-02-05T06:18:08.960Z,27.07
2019-02-05T06:20:38.503Z,21.50
2019-02-05T06:23:07.852Z,36.17
2019-02-05T06:25:37.242Z,32.20
2019-02-05T06:28:06.703Z,28.80
2019-02-05T06:30:36.179Z,25.83
2019-02-05T06:33:05.661Z,30.07
2019-02-05T06:35:35.396Z,36.87
2019-02-05T06:38:04.962Z,30.73
2019-02-05T06:40:34.482Z,33.87
2019-02-05T06:43:04.227Z,23.10
2019-02-05T06:45:33.906Z,30.60
2019-02-05T06:48:03.406Z,34.73
2019-02-05T06:50:33.153Z,40.70
2019-02-05T06:53:03.893Z,24.20
2019-02-05T06:55:33.507Z,27.13
2019-02-05T06:58:03.066Z,29.67
2019-02-05T07:00:32.626Z,50.77
2019-02-05T07:03:02.053Z,41.47
2019-02-05T07:05:31.514Z,24.17
2019-02-05T07:08:00.994Z,45.57
2019-02-05T07:10:30.518Z,42.23
2019-02-05T07:12:59.957Z,24.77
2019-02-05T07:15:29.470Z,45.10
2019-02-05T07:17:58.874Z,42.77
2019-02-05T07:20:28.277Z,48.70
2019-02-05T07:22:58.147Z,43.93
2019-02-05T07:25:27.649Z,28.70
2019-02-05T07:27:57.190Z,43.87
2019-02-05T07:30:26.878Z,45.93
2019-02-05T07:32:56.620Z,48.23
2019-02-05T07:35:26.066Z,40.17
2019-02-05T07:37:56.121Z,38.73
2019-02-05T07:40:25.922Z,44.97
2019-02-05T07:42:55.386Z,28.63
2019-02-05T07:45:24.762Z,39.17
2019-02-05T07:47:54.215Z,33.70
2019-02-05T07:50:25.382Z,28.57
2019-02-05T07:52:55.651Z,42.10
2019-02-05T07:55:25.690Z,35.00
2019-02-05T07:57:55.142Z,27.73
2019-02-05T08:00:26.542Z,33.07
2019-02-05T08:02:56.287Z,20.93
2019-02-05T08:05:31.264Z,20.30
2019-02-05T08:08:01.273Z,21.57
2019-02-05T08:10:31.117Z,30.83
2019-02-05T08:13:00.675Z,23.83
2019-02-05T08:15:32.045Z,23.30
2019-02-05T08:18:01.967Z,34.40
2019-02-05T08:20:32.049Z,33.30
2019-02-05T08:23:01.457Z,29.53
2019-02-05T08:25:31.098Z,27.97
2019-02-05T08:28:01.095Z,21.80
2019-02-05T08:30:33.188Z,34.60
2019-02-05T08:33:02.636Z,33.17
2019-02-05T08:35:32.319Z,30.93
2019-02-05T08:38:01.768Z,22.27
2019-02-05T08:40:31.255Z,35.47
2019-02-05T08:43:00.805Z,19.27
2019-02-05T08:45:31.111Z,20.80
2019-02-05T08:48:00.679Z,25.90
2019-02-05T08:50:30.523Z,15.33
2019-02-05T08:52:59.899Z,23.37
2019-02-05T08:55:30.883Z,20.33
2019-02-05T08:58:03.116Z,27.77
2019-02-05T09:00:34.390Z,16.10
2019-02-05T09:03:04.087Z,18.93
2019-02-05T09:05:33.766Z,23.23
2019-02-05T09:08:03.206Z,23.70
2019-02-05T09:10:34.206Z,19.43
2019-02-05T09:13:03.866Z,27.47
2019-02-05T09:15:33.826Z,23.90
2019-02-05T09:18:03.510Z,13.87
2019-02-05T09:20:32.978Z,29.63
2019-02-05T09:23:02.583Z,27.07
2019-02-05T09:25:32.110Z,24.60
2019-02-05T09:28:01.610Z,21.10
2019-02-05T09:30:33.538Z,25.67
2019-02-05T09:33:06.238Z,20.33
2019-02-05T09:35:35.726Z,21.67
2019-02-05T09:38:05.274Z,19.83
2019-02-05T09:40:34.805Z,18.07
2019-02-05T09:43:04.648Z,18.47
2019-02-05T09:45:34.623Z,17.27
2019-02-05T09:48:04.315Z,19.17
2019-02-05T09:50:44.547Z,23.30
2019-02-05T09:53:09.838Z,25.57
2019-02-05T09:55:39.933Z,19.77
2019-02-05T09:58:10.713Z,35.40
2019-02-05T10:00:41.222Z,28.73
2019-02-05T10:03:11.337Z,26.10
2019-02-05T10:05:42.030Z,21.27
2019-02-05T10:08:11.496Z,23.87
2019-02-05T10:10:41.063Z,21.93
2019-02-05T10:13:10.848Z,22.73
2019-02-05T10:15:41.510Z,22.17
2019-02-05T10:18:12.685Z,21.93
2019-02-05T10:20:42.757Z,25.67
2019-02-05T10:23:12.210Z,25.43
2019-02-05T10:25:41.660Z,30.50
2019-02-05T10:28:11.083Z,27.73
2019-02-05T10:30:42.760Z,25.27
2019-02-05T10:33:12.374Z,30.33
2019-02-05T10:35:42.696Z,25.50
2019-02-05T10:38:12.205Z,32.80
2019-02-05T10:40:41.622Z,36.73
2019-02-05T10:43:11.066Z,32.40
2019-02-05T10:45:40.548Z,19.77
2019-02-05T10:48:10.975Z,29.13
2019-02-05T10:50:40.577Z,25.07
2019-02-05T10:53:10.033Z,28.90
2019-02-05T10:55:39.494Z,22.03
2019-02-05T10:58:09.861Z,29.03
2019-02-05T11:00:39.923Z,25.83
2019-02-05T11:03:10.488Z,24.03
2019-02-05T11:05:40.916Z,56.53
2019-02-05T11:08:10.613Z,22.43
2019-02-05T11:10:40.062Z,23.70
2019-02-05T11:13:09.729Z,24.30
2019-02-05T11:15:39.142Z,29.40
2019-02-05T11:18:10.798Z,23.17
2019-02-05T11:20:40.744Z,22.33
2019-02-05T11:23:10.305Z,26.30
2019-02-05T11:25:39.896Z,27.63
2019-02-05T11:28:09.318Z,26.80
2019-02-05T11:30:41.598Z,23.37
2019-02-05T11:33:11.592Z,21.47
2019-02-05T11:35:41.044Z,33.33
2019-02-05T11:38:11.927Z,18.93
2019-02-05T11:40:41.994Z,29.67
2019-02-05T11:43:11.459Z,23.80
2019-02-05T11:45:40.916Z,28.27
2019-02-05T11:48:13.711Z,36.80
2019-02-05T11:50:43.123Z,22.17
2019-02-05T11:53:12.795Z,35.30
2019-02-05T11:55:42.242Z,24.50
2019-02-05T11:58:11.794Z,22.30
2019-02-05T12:01:09.393Z,23.60
2019-02-05T12:03:38.962Z,35.20
2019-02-05T12:06:08.722Z,33.07
2019-02-05T12:08:38.430Z,33.53
2019-02-05T12:11:07.834Z,34.33
2019-02-05T12:13:37.445Z,29.20
2019-02-05T12:16:07.101Z,36.73
2019-02-05T12:18:36.618Z,38.77
2019-02-05T12:21:06.214Z,28.03
2019-02-05T12:23:35.726Z,30.73
2019-02-05T12:26:05.323Z,38.80
2019-02-05T12:28:34.850Z,26.50
2019-02-05T12:31:04.469Z,32.80
2019-02-05T12:33:33.937Z,25.47
2019-02-05T12:36:03.595Z,32.57
2019-02-05T12:38:33.111Z,25.83
2019-02-05T12:41:02.518Z,30.60
2019-02-05T12:43:31.972Z,41.33
2019-02-05T12:46:01.409Z,32.30
2019-02-05T12:48:30.977Z,36.47
2019-02-05T12:51:00.474Z,31.90
2019-02-05T12:53:29.811Z,39.70
2019-02-05T12:55:59.270Z,34.10
2019-02-05T12:58:28.783Z,33.73
2019-02-05T13:01:00.598Z,38.07
2019-02-05T13:03:29.446Z,31.60
2019-02-05T13:05:58.878Z,30.63
2019-02-05T13:08:28.282Z,42.17
2019-02-05T13:10:57.716Z,43.97
2019-02-05T13:13:27.246Z,46.67
2019-02-05T13:15:56.586Z,41.33
2019-02-05T13:18:26.039Z,29.47
2019-02-05T13:20:55.407Z,31.90
2019-02-05T13:23:24.895Z,34.70
2019-02-05T13:25:54.294Z,42.37
2019-02-05T13:28:23.820Z,42.07
2019-02-05T13:30:53.250Z,39.00
2019-02-05T13:33:22.686Z,38.53
2019-02-05T13:35:52.297Z,27.33
2019-02-05T13:38:21.869Z,31.20
2019-02-05T13:40:51.270Z,36.33
2019-02-05T13:43:20.665Z,31.63
2019-02-05T13:45:50.382Z,30.23
2019-02-05T13:48:19.721Z,31.47
2019-02-05T13:50:49.098Z,29.77
2019-02-05T13:53:18.500Z,36.77
2019-02-05T13:55:48.131Z,56.03
2019-02-05T13:58:17.492Z,33.63
2019-02-05T14:00:55.034Z,32.60
2019-02-05T14:03:24.487Z,39.77
2019-02-05T14:05:54.033Z,33.27
2019-02-05T14:08:23.702Z,44.37
2019-02-05T14:10:53.081Z,41.83
2019-02-05T14:13:22.753Z,46.47
2019-02-05T14:15:53.586Z,52.63
2019-02-05T14:18:23.253Z,50.13
2019-02-05T14:20:52.947Z,50.40
2019-02-05T14:23:22.746Z,30.27
2019-02-05T14:25:52.273Z,49.47
2019-02-05T14:28:21.686Z,36.63
2019-02-05T14:30:56.346Z,39.43
2019-02-05T14:33:27.212Z,32.87
2019-02-05T14:35:56.584Z,37.90
2019-02-05T14:38:26.201Z,47.33
2019-02-05T14:40:55.692Z,51.83
2019-02-05T14:43:25.525Z,32.67
2019-02-05T14:45:54.974Z,47.47
2019-02-05T14:48:24.322Z,38.47
2019-02-05T14:50:53.775Z,57.20
2019-02-05T14:53:23.122Z,43.87
2019-02-05T14:55:52.578Z,49.13
2019-02-05T14:58:23.392Z,46.50
2019-02-05T15:00:52.873Z,44.90
2019-02-05T15:03:22.294Z,43.23
2019-02-05T15:05:51.722Z,52.50
2019-02-05T15:08:21.181Z,54.63
2019-02-05T15:10:50.606Z,42.13
2019-02-05T15:13:20.109Z,47.37
2019-02-05T15:15:49.535Z,39.70
2019-02-05T15:18:21.285Z,61.93
2019-02-05T15:20:51.278Z,51.20
2019-02-05T15:23:21.827Z,57.67
2019-02-05T15:25:51.583Z,61.33
2019-02-05T15:28:21.049Z,42.57
2019-02-05T15:30:50.471Z,58.70
2019-02-05T15:33:34.613Z,56.73
2019-02-05T15:36:11.246Z,49.63
2019-02-05T15:38:40.874Z,59.73
2019-02-05T15:41:10.241Z,50.10
2019-02-05T15:43:39.722Z,56.77
2019-02-05T15:46:09.187Z,49.40
2019-02-05T15:48:38.633Z,57.23
2019-02-05T15:51:08.307Z,72.63
2019-02-05T15:53:37.757Z,59.13
2019-02-05T15:56:07.604Z,42.33
2019-02-05T15:58:37.098Z,61.23
2019-02-05T16:01:07.062Z,48.80
2019-02-05T16:03:36.569Z,75.13
2019-02-05T16:06:06.392Z,44.37
2019-02-05T16:08:35.852Z,72.93
2019-02-05T16:11:05.817Z,57.90
2019-02-05T16:13:35.306Z,56.57
2019-02-05T16:16:04.938Z,51.40
2019-02-05T16:18:34.388Z,55.00
2019-02-05T16:21:04.048Z,59.13
2019-02-05T16:23:33.499Z,44.70
2019-02-05T16:26:02.904Z,69.60
2019-02-05T16:28:32.411Z,69.33
2019-02-05T16:31:01.749Z,58.83
2019-02-05T16:33:31.390Z,80.40
2019-02-05T16:36:01.179Z,64.60
2019-02-05T16:38:30.772Z,69.03
2019-02-05T16:41:00.158Z,61.17
2019-02-05T16:43:29.616Z,66.90
2019-02-05T16:45:59.128Z,66.70
2019-02-05T16:48:28.587Z,79.27
2019-02-05T16:50:58.282Z,59.37
2019-02-05T16:53:27.709Z,47.17
2019-02-05T16:55:57.115Z,57.63
2019-02-05T16:58:26.669Z,61.83
2019-02-05T17:00:56.004Z,56.30
2019-02-05T17:03:25.474Z,43.57
2019-02-05T17:05:55.416Z,41.53
2019-02-05T17:08:24.826Z,79.80
2019-02-05T17:10:54.274Z,72.90
2019-02-05T17:13:23.757Z,94.83
2019-02-05T17:15:53.326Z,87.13
2019-02-05T17:18:23.966Z,74.77
2019-02-05T17:20:53.767Z,71.60
2019-02-05T17:23:23.295Z,56.00
2019-02-05T17:25:52.782Z,62.23
2019-02-05T17:28:22.226Z,75.03
2019-02-05T17:30:51.819Z,58.33
2019-02-05T17:33:21.341Z,83.27
2019-02-05T17:35:50.781Z,90.47
2019-02-05T17:38:20.314Z,84.97
2019-02-05T17:40:49.699Z,79.30
2019-02-05T17:43:19.142Z,74.97
2019-02-05T17:45:48.732Z,93.70
2019-02-05T17:48:18.750Z,106.73
2019-02-05T17:50:50.854Z,103.07
2019-02-05T17:53:20.289Z,103.73
2019-02-05T17:55:50.089Z,92.57
2019-02-05T17:58:19.519Z,72.07
2019-02-05T18:00:55.881Z,62.17
2019-02-05T18:03:25.302Z,79.60
2019-02-05T18:05:54.822Z,88.23
2019-02-05T18:08:24.267Z,107.30
2019-02-05T18:10:53.694Z,93.87
2019-02-05T18:13:23.182Z,60.83
2019-02-05T18:15:52.670Z,100.40
2019-02-05T18:18:22.104Z,101.87
2019-02-05T18:20:51.564Z,100.67
2019-02-05T18:23:21.013Z,94.73
2019-02-05T18:25:50.479Z,70.43
2019-02-05T18:28:19.816Z,67.97
2019-02-05T18:30:49.407Z,72.00
2019-02-05T18:33:19.141Z,112.73
2019-02-05T18:35:48.531Z,101.13
2019-02-05T18:38:17.997Z,85.80
2019-02-05T18:40:47.335Z,102.63
2019-02-05T18:43:16.827Z,73.53
2019-02-05T18:45:48.533Z,104.10
2019-02-05T18:48:18.190Z,85.60
2019-02-05T18:50:49.126Z,100.70
2019-02-05T18:53:18.530Z,88.77
2019-02-05T18:55:48.733Z,91.20
2019-02-05T18:58:18.119Z,76.93
2019-02-05T19:00:47.887Z,94.07
2019-02-05T19:03:17.542Z,86.40
2019-02-05T19:05:47.000Z,96.03
2019-02-05T19:08:16.958Z,90.70
2019-02-05T19:10:46.495Z,85.20
2019-02-05T19:13:15.874Z,102.97
2019-02-05T19:15:45.949Z,94.70
2019-02-05T19:18:15.318Z,77.93
2019-02-05T19:20:44.729Z,96.07
2019-02-05T19:23:14.186Z,108.63
2019-02-05T19:26:03.816Z,73.20
2019-02-05T19:28:40.953Z,101.60
2019-02-05T19:31:29.402Z,101.20
2019-02-05T19:33:58.935Z,65.37
2019-02-05T19:36:28.649Z,98.47
2019-02-05T19:38:58.094Z,101.83
2019-02-05T19:41:27.510Z,94.23
2019-02-05T19:43:59.786Z,106.83
2019-02-05T19:46:52.292Z,102.33
2019-02-05T19:49:24.640Z,91.17
2019-02-05T19:51:54.086Z,101.47
2019-02-05T19:54:23.904Z,94.30
2019-02-05T19:56:53.870Z,93.73
2019-02-05T19:59:23.614Z,80.43
2019-02-05T20:01:53.082Z,118.67
2019-02-05T20:04:22.739Z,81.20
2019-02-05T20:06:52.157Z,108.93
2019-02-05T20:09:21.754Z,113.00
2019-02-05T20:11:51.369Z,100.60
2019-02-05T20:14:20.809Z,118.07
2019-02-05T20:16:50.477Z,93.13
2019-02-05T20:19:20.073Z,93.00
2019-02-05T20:21:49.570Z,95.63
2019-02-05T20:24:19.074Z,105.40
2019-02-05T20:26:48.452Z,131.10
2019-02-05T20:29:18.338Z,119.60
2019-02-05T20:31:47.745Z,99.60
2019-02-05T20:34:17.149Z,127.13
2019-02-05T20:36:46.862Z,116.80
2019-02-05T20:39:17.947Z,117.37
2019-02-05T20:41:47.426Z,121.07
2019-02-05T20:44:17.239Z,112.13
2019-02-05T20:46:47.935Z,124.70
2019-02-05T20:49:17.652Z,119.30
2019-02-05T20:51:47.414Z,104.20
2019-02-05T20:54:18.708Z,98.47
2019-02-05T20:56:48.498Z,109.67
2019-02-05T20:59:17.928Z,108.77
2019-02-05T21:01:47.701Z,123.03
2019-02-05T21:04:17.141Z,109.50
2019-02-05T21:06:47.006Z,124.90
2019-02-05T21:09:21.407Z,83.10
2019-02-05T21:11:51.030Z,118.83
2019-02-05T21:14:20.399Z,127.13
2019-02-05T21:16:49.949Z,124.70
2019-02-05T21:19:19.271Z,119.40
2019-02-05T21:21:49.050Z,125.83
2019-02-05T21:24:18.542Z,125.27
2019-02-05T21:26:47.901Z,123.00
2019-02-05T21:29:17.441Z,115.43
2019-02-05T21:31:46.926Z,106.53
2019-02-05T21:34:16.395Z,123.83
2019-02-05T21:36:45.817Z,93.70
2019-02-05T21:39:15.416Z,104.63
2019-02-05T21:41:45.026Z,107.47
2019-02-05T21:44:14.414Z,102.13
2019-02-05T21:46:43.828Z,94.67
2019-02-05T21:49:13.536Z,83.33
2019-02-05T21:51:43.446Z,91.30
2019-02-05T21:54:13.263Z,115.17
2019-02-05T21:56:42.711Z,73.60
2019-02-05T21:59:12.465Z,93.27
2019-02-05T22:01:41.951Z,107.43
2019-02-05T22:04:11.377Z,111.83
2019-02-05T22:06:40.905Z,102.03
2019-02-05T22:09:13.141Z,102.60
2019-02-05T22:11:42.549Z,105.60
2019-02-05T22:14:12.074Z,110.40
2019-02-05T22:16:41.569Z,112.47
2019-02-05T22:19:11.278Z,106.20
2019-02-05T22:21:40.733Z,87.27
2019-02-05T22:24:10.169Z,70.60
2019-02-05T22:26:39.622Z,109.93
2019-02-05T22:29:09.592Z,115.60
2019-02-05T22:31:39.055Z,109.70
2019-02-05T22:34:08.899Z,98.37
2019-02-05T22:36:38.512Z,82.43
2019-02-05T22:39:10.168Z,77.50
2019-02-05T22:41:39.617Z,111.00
2019-02-05T22:44:09.167Z,118.90
2019-02-05T22:46:38.898Z,98.77
2019-02-05T22:49:08.337Z,91.83
2019-02-05T22:51:38.190Z,96.87
2019-02-05T22:54:07.671Z,91.73
2019-02-05T22:56:37.197Z,114.43
2019-02-05T22:59:07.469Z,111.03
2019-02-05T23:01:57.911Z,86.27
2019-02-05T23:05:11.796Z,112.63
2019-02-05T23:07:41.311Z,115.27
2019-02-05T23:11:03.018Z,116.97
2019-02-05T23:13:26.320Z,101.50
2019-02-05T23:15:56.119Z,102.30
2019-02-05T23:18:25.661Z,115.90
2019-02-05T23:20:54.987Z,87.43
2019-02-05T23:23:24.416Z,103.23
2019-02-05T23:25:53.882Z,114.17
2019-02-05T23:28:23.358Z,105.47
2019-02-05T23:30:53.127Z,93.70
2019-02-05T23:33:22.507Z,105.27
2019-02-05T23:35:51.938Z,113.37
2019-02-05T23:38:21.460Z,105.07
2019-02-05T23:40:50.835Z,106.23
2019-02-05T23:43:20.414Z,83.60
2019-02-05T23:46:00.978Z,108.87
2019-02-05T23:48:21.726Z,90.97
2019-02-05T23:50:51.185Z,107.00
2019-02-05T23:53:20.578Z,90.53
2019-02-05T23:55:50.009Z,92.50
2019-02-05T23:58:19.539Z,89.20
